sensor_id;sensor_type;location;lat;lon;timestamp;P1;durP1;ratioP1;P2;durP2;ratioP2
15110;SDS011;7656;51.954;7.998;2023-11-19T00:02:00;2.73;;;2.27;;
15110;SDS011;7656;51.954;7.998;2023-11-19T00:06:22;2.17;;;2.07;;
15110;SDS011;7656;51.954;7.998;2023-11-19T00:10:45;5.57;;;2.40;;
15110;SDS011;7656;51.954;7.998;2023-11-19T00:15:07;2.80;;;2.27;;
15110;SDS011;7656;51.954;7.998;2023-11-19T00:19:32;3.50;;;2.50;;
15110;SDS011;7656;51.954;7.998;2023-11-19T00:23:53;2.83;;;2.50;;
15110;SDS011;7656;51.954;7.998;2023-11-19T00:28:15;3.30;;;2.17;;
15110;SDS011;7656;51.954;7.998;2023-11-19T00:32:36;2.60;;;2.40;;
15110;SDS011;7656;51.954;7.998;2023-11-19T00:36:59;2.70;;;2.50;;
15110;SDS011;7656;51.954;7.998;2023-11-19T00:41:21;2.63;;;2.43;;
15110;SDS011;7656;51.954;7.998;2023-11-19T00:45:43;2.50;;;2.30;;
15110;SDS011;7656;51.954;7.998;2023-11-19T00:50:05;2.70;;;2.50;;
15110;SDS011;7656;51.954;7.998;2023-11-19T00:54:29;4.27;;;2.53;;
15110;SDS011;7656;51.954;7.998;2023-11-19T00:58:51;3.10;;;2.80;;
15110;SDS011;7656;51.954;7.998;2023-11-19T01:03:12;3.57;;;3.27;;
15110;SDS011;7656;51.954;7.998;2023-11-19T01:07:35;3.33;;;3.10;;
15110;SDS011;7656;51.954;7.998;2023-11-19T01:11:57;4.00;;;3.70;;
15110;SDS011;7656;51.954;7.998;2023-11-19T01:16:21;4.63;;;4.23;;
15110;SDS011;7656;51.954;7.998;2023-11-19T01:20:43;4.33;;;3.93;;
15110;SDS011;7656;51.954;7.998;2023-11-19T01:25:05;4.27;;;3.93;;
15110;SDS011;7656;51.954;7.998;2023-11-19T01:29:27;4.57;;;4.17;;
15110;SDS011;7656;51.954;7.998;2023-11-19T01:33:48;4.53;;;4.13;;
15110;SDS011;7656;51.954;7.998;2023-11-19T01:38:10;4.10;;;3.80;;
15110;SDS011;7656;51.954;7.998;2023-11-19T01:42:36;3.90;;;3.50;;
15110;SDS011;7656;51.954;7.998;2023-11-19T01:46:58;4.77;;;4.30;;
15110;SDS011;7656;51.954;7.998;2023-11-19T01:51:21;4.47;;;3.80;;
15110;SDS011;7656;51.954;7.998;2023-11-19T01:55:43;4.83;;;4.30;;
15110;SDS011;7656;51.954;7.998;2023-11-19T02:00:05;5.30;;;4.67;;
15110;SDS011;7656;51.954;7.998;2023-11-19T02:04:34;4.87;;;4.37;;
15110;SDS011;7656;51.954;7.998;2023-11-19T02:08:55;5.73;;;5.20;;
15110;SDS011;7656;51.954;7.998;2023-11-19T02:13:17;5.73;;;5.00;;
15110;SDS011;7656;51.954;7.998;2023-11-19T02:17:39;6.77;;;5.60;;
15110;SDS011;7656;51.954;7.998;2023-11-19T02:22:01;8.60;;;5.70;;
15110;SDS011;7656;51.954;7.998;2023-11-19T02:26:32;7.67;;;6.53;;
15110;SDS011;7656;51.954;7.998;2023-11-19T02:31:00;7.97;;;6.80;;
15110;SDS011;7656;51.954;7.998;2023-11-19T02:35:21;7.27;;;6.50;;
15110;SDS011;7656;51.954;7.998;2023-11-19T02:39:43;9.87;;;7.60;;
15110;SDS011;7656;51.954;7.998;2023-11-19T02:44:06;7.93;;;7.13;;
15110;SDS011;7656;51.954;7.998;2023-11-19T02:48:27;10.33;;;7.43;;
15110;SDS011;7656;51.954;7.998;2023-11-19T02:52:49;10.50;;;7.53;;
15110;SDS011;7656;51.954;7.998;2023-11-19T02:57:11;8.93;;;7.10;;
15110;SDS011;7656;51.954;7.998;2023-11-19T03:01:33;9.80;;;7.57;;
15110;SDS011;7656;51.954;7.998;2023-11-19T03:05:56;9.10;;;7.47;;
15110;SDS011;7656;51.954;7.998;2023-11-19T03:10:18;10.50;;;7.03;;
15110;SDS011;7656;51.954;7.998;2023-11-19T03:14:40;8.80;;;7.77;;
15110;SDS011;7656;51.954;7.998;2023-11-19T03:19:01;8.77;;;6.90;;
15110;SDS011;7656;51.954;7.998;2023-11-19T03:23:24;10.97;;;6.77;;
15110;SDS011;7656;51.954;7.998;2023-11-19T03:27:49;8.57;;;7.67;;
15110;SDS011;7656;51.954;7.998;2023-11-19T03:32:10;9.67;;;7.37;;
15110;SDS011;7656;51.954;7.998;2023-11-19T03:36:32;12.57;;;7.43;;
15110;SDS011;7656;51.954;7.998;2023-11-19T03:40:54;8.80;;;6.80;;
15110;SDS011;7656;51.954;7.998;2023-11-19T03:45:15;8.10;;;6.70;;
15110;SDS011;7656;51.954;7.998;2023-11-19T03:49:37;6.27;;;5.47;;
15110;SDS011;7656;51.954;7.998;2023-11-19T03:53:58;10.77;;;6.07;;
15110;SDS011;7656;51.954;7.998;2023-11-19T03:58:20;6.67;;;5.60;;
15110;SDS011;7656;51.954;7.998;2023-11-19T04:02:42;8.07;;;5.40;;
15110;SDS011;7656;51.954;7.998;2023-11-19T04:07:03;9.93;;;5.27;;
15110;SDS011;7656;51.954;7.998;2023-11-19T04:11:25;12.47;;;5.97;;
15110;SDS011;7656;51.954;7.998;2023-11-19T04:15:47;10.00;;;4.43;;
15110;SDS011;7656;51.954;7.998;2023-11-19T04:20:10;6.20;;;4.10;;
15110;SDS011;7656;51.954;7.998;2023-11-19T04:24:34;6.90;;;3.50;;
15110;SDS011;7656;51.954;7.998;2023-11-19T04:28:56;8.97;;;3.60;;
15110;SDS011;7656;51.954;7.998;2023-11-19T04:33:17;8.73;;;3.87;;
15110;SDS011;7656;51.954;7.998;2023-11-19T04:37:39;9.23;;;3.10;;
15110;SDS011;7656;51.954;7.998;2023-11-19T04:42:01;12.03;;;3.03;;
15110;SDS011;7656;51.954;7.998;2023-11-19T04:46:24;8.50;;;3.33;;
15110;SDS011;7656;51.954;7.998;2023-11-19T04:50:46;6.47;;;2.73;;
15110;SDS011;7656;51.954;7.998;2023-11-19T04:55:08;10.33;;;3.00;;
15110;SDS011;7656;51.954;7.998;2023-11-19T04:59:33;7.57;;;3.37;;
15110;SDS011;7656;51.954;7.998;2023-11-19T05:03:56;7.73;;;2.87;;
15110;SDS011;7656;51.954;7.998;2023-11-19T05:08:19;11.87;;;3.70;;
15110;SDS011;7656;51.954;7.998;2023-11-19T05:12:41;7.27;;;3.07;;
15110;SDS011;7656;51.954;7.998;2023-11-19T05:17:02;11.97;;;3.20;;
15110;SDS011;7656;51.954;7.998;2023-11-19T05:21:24;12.00;;;3.17;;
15110;SDS011;7656;51.954;7.998;2023-11-19T05:25:45;12.63;;;3.40;;
15110;SDS011;7656;51.954;7.998;2023-11-19T05:30:08;6.43;;;3.10;;
15110;SDS011;7656;51.954;7.998;2023-11-19T05:34:30;7.57;;;3.43;;
15110;SDS011;7656;51.954;7.998;2023-11-19T05:38:52;9.70;;;3.50;;
15110;SDS011;7656;51.954;7.998;2023-11-19T05:43:14;14.67;;;4.17;;
15110;SDS011;7656;51.954;7.998;2023-11-19T05:47:37;14.23;;;3.70;;
15110;SDS011;7656;51.954;7.998;2023-11-19T05:51:58;19.77;;;3.30;;
15110;SDS011;7656;51.954;7.998;2023-11-19T05:56:22;10.10;;;3.20;;
15110;SDS011;7656;51.954;7.998;2023-11-19T06:00:43;15.10;;;4.07;;
15110;SDS011;7656;51.954;7.998;2023-11-19T06:05:08;12.27;;;3.83;;
15110;SDS011;7656;51.954;7.998;2023-11-19T06:09:30;11.80;;;4.10;;
15110;SDS011;7656;51.954;7.998;2023-11-19T06:13:54;14.87;;;4.00;;
15110;SDS011;7656;51.954;7.998;2023-11-19T06:18:16;11.90;;;3.90;;
15110;SDS011;7656;51.954;7.998;2023-11-19T06:22:40;15.70;;;4.23;;
15110;SDS011;7656;51.954;7.998;2023-11-19T06:27:04;14.07;;;3.57;;
15110;SDS011;7656;51.954;7.998;2023-11-19T06:31:25;18.17;;;4.07;;
15110;SDS011;7656;51.954;7.998;2023-11-19T06:35:47;12.37;;;3.70;;
15110;SDS011;7656;51.954;7.998;2023-11-19T06:40:09;11.23;;;4.17;;
15110;SDS011;7656;51.954;7.998;2023-11-19T06:44:32;19.80;;;4.53;;
15110;SDS011;7656;51.954;7.998;2023-11-19T06:48:54;16.13;;;4.40;;
15110;SDS011;7656;51.954;7.998;2023-11-19T06:53:16;10.27;;;3.47;;
15110;SDS011;7656;51.954;7.998;2023-11-19T06:57:37;15.00;;;3.50;;
15110;SDS011;7656;51.954;7.998;2023-11-19T07:01:59;14.67;;;4.23;;
15110;SDS011;7656;51.954;7.998;2023-11-19T07:06:20;15.67;;;3.80;;
15110;SDS011;7656;51.954;7.998;2023-11-19T07:10:43;15.10;;;3.50;;
15110;SDS011;7656;51.954;7.998;2023-11-19T07:15:06;23.87;;;3.63;;
15110;SDS011;7656;51.954;7.998;2023-11-19T07:19:32;14.90;;;4.00;;
15110;SDS011;7656;51.954;7.998;2023-11-19T07:23:55;16.90;;;3.83;;
15110;SDS011;7656;51.954;7.998;2023-11-19T07:28:17;18.63;;;3.97;;
15110;SDS011;7656;51.954;7.998;2023-11-19T07:32:38;12.70;;;3.80;;
15110;SDS011;7656;51.954;7.998;2023-11-19T07:37:00;11.47;;;3.53;;
15110;SDS011;7656;51.954;7.998;2023-11-19T07:41:23;15.63;;;3.53;;
15110;SDS011;7656;51.954;7.998;2023-11-19T07:45:45;17.33;;;4.57;;
15110;SDS011;7656;51.954;7.998;2023-11-19T07:50:07;18.10;;;4.50;;
15110;SDS011;7656;51.954;7.998;2023-11-19T07:54:30;17.20;;;3.87;;
15110;SDS011;7656;51.954;7.998;2023-11-19T07:58:51;18.33;;;4.63;;
15110;SDS011;7656;51.954;7.998;2023-11-19T08:03:13;16.87;;;3.70;;
15110;SDS011;7656;51.954;7.998;2023-11-19T08:07:34;17.27;;;3.97;;
15110;SDS011;7656;51.954;7.998;2023-11-19T08:11:56;15.10;;;3.77;;
15110;SDS011;7656;51.954;7.998;2023-11-19T08:16:18;17.57;;;4.17;;
15110;SDS011;7656;51.954;7.998;2023-11-19T08:20:39;16.53;;;3.93;;
15110;SDS011;7656;51.954;7.998;2023-11-19T08:25:01;18.43;;;3.73;;
15110;SDS011;7656;51.954;7.998;2023-11-19T08:29:24;11.60;;;3.87;;
15110;SDS011;7656;51.954;7.998;2023-11-19T08:33:46;16.40;;;4.33;;
15110;SDS011;7656;51.954;7.998;2023-11-19T08:38:07;15.50;;;4.70;;
15110;SDS011;7656;51.954;7.998;2023-11-19T08:42:29;14.10;;;4.60;;
15110;SDS011;7656;51.954;7.998;2023-11-19T08:46:51;17.50;;;4.70;;
15110;SDS011;7656;51.954;7.998;2023-11-19T08:51:12;20.63;;;3.93;;
15110;SDS011;7656;51.954;7.998;2023-11-19T08:55:34;21.30;;;4.50;;
15110;SDS011;7656;51.954;7.998;2023-11-19T08:59:55;18.17;;;4.50;;
15110;SDS011;7656;51.954;7.998;2023-11-19T09:04:17;17.03;;;4.10;;
15110;SDS011;7656;51.954;7.998;2023-11-19T09:08:38;17.63;;;3.23;;
15110;SDS011;7656;51.954;7.998;2023-11-19T09:13:00;15.30;;;4.13;;
15110;SDS011;7656;51.954;7.998;2023-11-19T09:17:21;19.47;;;4.83;;
15110;SDS011;7656;51.954;7.998;2023-11-19T09:21:43;19.00;;;3.90;;
15110;SDS011;7656;51.954;7.998;2023-11-19T09:26:05;13.03;;;4.00;;
15110;SDS011;7656;51.954;7.998;2023-11-19T09:30:27;13.93;;;4.40;;
15110;SDS011;7656;51.954;7.998;2023-11-19T09:34:48;15.37;;;4.23;;
15110;SDS011;7656;51.954;7.998;2023-11-19T09:39:10;19.77;;;4.63;;
15110;SDS011;7656;51.954;7.998;2023-11-19T09:43:33;21.07;;;4.57;;
15110;SDS011;7656;51.954;7.998;2023-11-19T09:47:58;16.70;;;4.07;;
15110;SDS011;7656;51.954;7.998;2023-11-19T09:52:21;17.80;;;3.70;;
15110;SDS011;7656;51.954;7.998;2023-11-19T09:56:42;15.80;;;3.93;;
15110;SDS011;7656;51.954;7.998;2023-11-19T10:01:04;21.00;;;4.40;;
15110;SDS011;7656;51.954;7.998;2023-11-19T10:05:29;18.57;;;4.17;;
15110;SDS011;7656;51.954;7.998;2023-11-19T10:09:50;19.17;;;3.67;;
15110;SDS011;7656;51.954;7.998;2023-11-19T10:14:12;18.60;;;3.43;;
15110;SDS011;7656;51.954;7.998;2023-11-19T10:18:34;20.20;;;4.13;;
15110;SDS011;7656;51.954;7.998;2023-11-19T10:22:58;17.50;;;4.80;;
15110;SDS011;7656;51.954;7.998;2023-11-19T10:27:20;16.43;;;3.97;;
15110;SDS011;7656;51.954;7.998;2023-11-19T10:31:51;17.67;;;4.50;;
15110;SDS011;7656;51.954;7.998;2023-11-19T10:36:17;18.03;;;4.13;;
15110;SDS011;7656;51.954;7.998;2023-11-19T10:40:40;18.30;;;4.93;;
15110;SDS011;7656;51.954;7.998;2023-11-19T10:45:01;15.97;;;3.80;;
15110;SDS011;7656;51.954;7.998;2023-11-19T10:49:23;17.53;;;3.67;;
15110;SDS011;7656;51.954;7.998;2023-11-19T10:53:45;19.07;;;3.57;;
15110;SDS011;7656;51.954;7.998;2023-11-19T10:58:09;13.53;;;3.60;;
15110;SDS011;7656;51.954;7.998;2023-11-19T11:02:32;16.90;;;3.50;;
15110;SDS011;7656;51.954;7.998;2023-11-19T11:06:54;14.73;;;3.23;;
15110;SDS011;7656;51.954;7.998;2023-11-19T11:11:18;16.13;;;3.77;;
15110;SDS011;7656;51.954;7.998;2023-11-19T11:15:41;15.33;;;3.40;;
15110;SDS011;7656;51.954;7.998;2023-11-19T11:20:03;18.30;;;4.47;;
15110;SDS011;7656;51.954;7.998;2023-11-19T11:29:04;17.57;;;4.00;;
15110;SDS011;7656;51.954;7.998;2023-11-19T11:38:07;16.73;;;3.83;;
15110;SDS011;7656;51.954;7.998;2023-11-19T11:46:54;17.40;;;3.43;;
15110;SDS011;7656;51.954;7.998;2023-11-19T11:51:16;11.87;;;3.30;;
15110;SDS011;7656;51.954;7.998;2023-11-19T11:55:51;11.80;;;3.03;;
15110;SDS011;7656;51.954;7.998;2023-11-19T12:04:52;12.00;;;2.97;;
15110;SDS011;7656;51.954;7.998;2023-11-19T12:09:14;17.57;;;4.03;;
15110;SDS011;7656;51.954;7.998;2023-11-19T12:18:27;13.40;;;3.57;;
15110;SDS011;7656;51.954;7.998;2023-11-19T12:22:50;20.07;;;3.53;;
15110;SDS011;7656;51.954;7.998;2023-11-19T12:27:12;17.10;;;3.67;;
15110;SDS011;7656;51.954;7.998;2023-11-19T12:31:35;16.00;;;3.73;;
15110;SDS011;7656;51.954;7.998;2023-11-19T12:35:57;13.83;;;3.30;;
15110;SDS011;7656;51.954;7.998;2023-11-19T12:40:22;14.47;;;3.37;;
15110;SDS011;7656;51.954;7.998;2023-11-19T12:45:18;14.47;;;3.57;;
15110;SDS011;7656;51.954;7.998;2023-11-19T12:49:33;9.43;;;3.10;;
15110;SDS011;7656;51.954;7.998;2023-11-19T12:53:54;15.87;;;3.10;;
15110;SDS011;7656;51.954;7.998;2023-11-19T13:03:09;15.67;;;3.20;;
15110;SDS011;7656;51.954;7.998;2023-11-19T13:07:31;16.67;;;3.80;;
15110;SDS011;7656;51.954;7.998;2023-11-19T13:11:53;13.87;;;3.27;;
15110;SDS011;7656;51.954;7.998;2023-11-19T13:16:15;12.63;;;3.27;;
15110;SDS011;7656;51.954;7.998;2023-11-19T13:20:38;11.73;;;3.13;;
15110;SDS011;7656;51.954;7.998;2023-11-19T13:24:59;10.77;;;3.23;;
15110;SDS011;7656;51.954;7.998;2023-11-19T13:29:21;11.73;;;3.03;;
15110;SDS011;7656;51.954;7.998;2023-11-19T13:33:42;10.37;;;3.53;;
15110;SDS011;7656;51.954;7.998;2023-11-19T13:38:04;8.17;;;2.73;;
15110;SDS011;7656;51.954;7.998;2023-11-19T13:42:25;15.03;;;3.40;;
15110;SDS011;7656;51.954;7.998;2023-11-19T13:46:47;10.07;;;2.53;;
15110;SDS011;7656;51.954;7.998;2023-11-19T13:51:09;14.70;;;3.50;;
15110;SDS011;7656;51.954;7.998;2023-11-19T13:55:30;8.10;;;2.57;;
15110;SDS011;7656;51.954;7.998;2023-11-19T13:59:52;10.07;;;3.53;;
15110;SDS011;7656;51.954;7.998;2023-11-19T14:04:13;15.00;;;3.73;;
15110;SDS011;7656;51.954;7.998;2023-11-19T14:08:35;13.87;;;3.17;;
15110;SDS011;7656;51.954;7.998;2023-11-19T14:12:56;5.03;;;2.13;;
15110;SDS011;7656;51.954;7.998;2023-11-19T14:17:18;13.13;;;2.50;;
15110;SDS011;7656;51.954;7.998;2023-11-19T14:21:40;8.50;;;3.73;;
15110;SDS011;7656;51.954;7.998;2023-11-19T14:26:02;10.93;;;2.50;;
15110;SDS011;7656;51.954;7.998;2023-11-19T14:30:23;11.97;;;2.40;;
15110;SDS011;7656;51.954;7.998;2023-11-19T14:34:45;8.50;;;2.20;;
15110;SDS011;7656;51.954;7.998;2023-11-19T14:39:06;6.90;;;2.03;;
15110;SDS011;7656;51.954;7.998;2023-11-19T14:43:28;6.50;;;2.60;;
15110;SDS011;7656;51.954;7.998;2023-11-19T14:47:49;9.67;;;2.80;;
15110;SDS011;7656;51.954;7.998;2023-11-19T14:52:11;6.67;;;2.80;;
15110;SDS011;7656;51.954;7.998;2023-11-19T14:56:32;9.53;;;2.67;;
15110;SDS011;7656;51.954;7.998;2023-11-19T15:00:54;12.93;;;2.83;;
15110;SDS011;7656;51.954;7.998;2023-11-19T15:05:15;8.47;;;2.80;;
15110;SDS011;7656;51.954;7.998;2023-11-19T15:09:37;8.17;;;2.83;;
15110;SDS011;7656;51.954;7.998;2023-11-19T15:13:58;8.80;;;3.40;;
15110;SDS011;7656;51.954;7.998;2023-11-19T15:18:21;13.60;;;2.57;;
15110;SDS011;7656;51.954;7.998;2023-11-19T15:22:43;11.33;;;2.93;;
15110;SDS011;7656;51.954;7.998;2023-11-19T15:27:05;11.47;;;2.93;;
15110;SDS011;7656;51.954;7.998;2023-11-19T15:31:26;7.73;;;2.73;;
15110;SDS011;7656;51.954;7.998;2023-11-19T15:35:49;14.00;;;2.53;;
15110;SDS011;7656;51.954;7.998;2023-11-19T15:40:10;8.87;;;2.27;;
15110;SDS011;7656;51.954;7.998;2023-11-19T15:44:33;12.50;;;3.50;;
15110;SDS011;7656;51.954;7.998;2023-11-19T15:48:54;10.33;;;2.60;;
15110;SDS011;7656;51.954;7.998;2023-11-19T15:53:16;11.13;;;3.50;;
15110;SDS011;7656;51.954;7.998;2023-11-19T15:57:38;10.37;;;2.87;;
15110;SDS011;7656;51.954;7.998;2023-11-19T16:02:00;7.93;;;3.07;;
15110;SDS011;7656;51.954;7.998;2023-11-19T16:06:21;16.50;;;3.97;;
15110;SDS011;7656;51.954;7.998;2023-11-19T16:10:43;8.33;;;3.07;;
15110;SDS011;7656;51.954;7.998;2023-11-19T16:15:06;10.43;;;2.67;;
15110;SDS011;7656;51.954;7.998;2023-11-19T16:19:30;9.00;;;2.73;;
15110;SDS011;7656;51.954;7.998;2023-11-19T16:23:54;8.20;;;2.77;;
15110;SDS011;7656;51.954;7.998;2023-11-19T16:28:16;9.83;;;3.07;;
15110;SDS011;7656;51.954;7.998;2023-11-19T16:32:46;6.10;;;2.33;;
15110;SDS011;7656;51.954;7.998;2023-11-19T16:37:11;8.37;;;2.60;;
15110;SDS011;7656;51.954;7.998;2023-11-19T16:41:34;7.10;;;2.53;;
15110;SDS011;7656;51.954;7.998;2023-11-19T16:45:56;11.07;;;3.20;;
15110;SDS011;7656;51.954;7.998;2023-11-19T16:50:18;7.77;;;3.27;;
15110;SDS011;7656;51.954;7.998;2023-11-19T16:54:39;9.07;;;3.10;;
15110;SDS011;7656;51.954;7.998;2023-11-19T16:59:01;10.23;;;3.03;;
15110;SDS011;7656;51.954;7.998;2023-11-19T17:03:22;11.83;;;2.87;;
15110;SDS011;7656;51.954;7.998;2023-11-19T17:07:44;11.37;;;2.77;;
15110;SDS011;7656;51.954;7.998;2023-11-19T17:12:05;10.27;;;3.30;;
15110;SDS011;7656;51.954;7.998;2023-11-19T17:16:27;4.67;;;2.70;;
15110;SDS011;7656;51.954;7.998;2023-11-19T17:20:49;11.47;;;3.20;;
15110;SDS011;7656;51.954;7.998;2023-11-19T17:25:11;6.13;;;2.60;;
15110;SDS011;7656;51.954;7.998;2023-11-19T17:29:34;4.97;;;2.37;;
15110;SDS011;7656;51.954;7.998;2023-11-19T17:33:55;13.77;;;3.60;;
15110;SDS011;7656;51.954;7.998;2023-11-19T17:38:18;8.87;;;3.80;;
15110;SDS011;7656;51.954;7.998;2023-11-19T17:42:41;8.20;;;3.03;;
15110;SDS011;7656;51.954;7.998;2023-11-19T17:47:04;10.23;;;3.33;;
15110;SDS011;7656;51.954;7.998;2023-11-19T17:51:25;12.97;;;4.30;;
15110;SDS011;7656;51.954;7.998;2023-11-19T17:55:47;10.43;;;3.47;;
15110;SDS011;7656;51.954;7.998;2023-11-19T18:00:09;7.13;;;3.57;;
15110;SDS011;7656;51.954;7.998;2023-11-19T18:04:33;11.70;;;3.80;;
15110;SDS011;7656;51.954;7.998;2023-11-19T18:08:58;9.37;;;3.10;;
15110;SDS011;7656;51.954;7.998;2023-11-19T18:13:20;16.07;;;3.67;;
15110;SDS011;7656;51.954;7.998;2023-11-19T18:17:42;8.53;;;3.40;;
15110;SDS011;7656;51.954;7.998;2023-11-19T18:22:04;10.53;;;3.60;;
15110;SDS011;7656;51.954;7.998;2023-11-19T18:26:25;6.43;;;3.20;;
15110;SDS011;7656;51.954;7.998;2023-11-19T18:30:48;9.83;;;3.30;;
15110;SDS011;7656;51.954;7.998;2023-11-19T18:35:10;6.83;;;3.23;;
15110;SDS011;7656;51.954;7.998;2023-11-19T18:39:32;9.70;;;3.47;;
15110;SDS011;7656;51.954;7.998;2023-11-19T18:43:53;10.03;;;3.80;;
15110;SDS011;7656;51.954;7.998;2023-11-19T18:48:15;5.60;;;3.10;;
15110;SDS011;7656;51.954;7.998;2023-11-19T18:52:36;7.67;;;3.00;;
15110;SDS011;7656;51.954;7.998;2023-11-19T18:56:58;9.43;;;3.17;;
15110;SDS011;7656;51.954;7.998;2023-11-19T19:01:20;8.17;;;3.83;;
15110;SDS011;7656;51.954;7.998;2023-11-19T19:05:43;7.80;;;3.63;;
15110;SDS011;7656;51.954;7.998;2023-11-19T19:10:04;10.50;;;3.23;;
15110;SDS011;7656;51.954;7.998;2023-11-19T19:14:26;9.83;;;3.07;;
15110;SDS011;7656;51.954;7.998;2023-11-19T19:18:48;8.00;;;2.90;;
15110;SDS011;7656;51.954;7.998;2023-11-19T19:23:10;8.87;;;2.73;;
15110;SDS011;7656;51.954;7.998;2023-11-19T19:27:32;7.27;;;3.53;;
15110;SDS011;7656;51.954;7.998;2023-11-19T19:31:54;8.13;;;3.57;;
15110;SDS011;7656;51.954;7.998;2023-11-19T19:36:16;6.13;;;3.27;;
15110;SDS011;7656;51.954;7.998;2023-11-19T19:40:38;6.00;;;3.10;;
15110;SDS011;7656;51.954;7.998;2023-11-19T19:44:59;7.80;;;3.17;;
15110;SDS011;7656;51.954;7.998;2023-11-19T19:49:21;5.33;;;3.10;;
15110;SDS011;7656;51.954;7.998;2023-11-19T19:53:43;10.37;;;3.40;;
15110;SDS011;7656;51.954;7.998;2023-11-19T19:58:05;12.47;;;3.87;;
15110;SDS011;7656;51.954;7.998;2023-11-19T20:02:28;5.97;;;3.43;;
15110;SDS011;7656;51.954;7.998;2023-11-19T20:06:50;7.33;;;3.97;;
15110;SDS011;7656;51.954;7.998;2023-11-19T20:11:13;9.03;;;3.43;;
15110;SDS011;7656;51.954;7.998;2023-11-19T20:15:35;7.70;;;3.63;;
15110;SDS011;7656;51.954;7.998;2023-11-19T20:19:57;6.40;;;2.87;;
15110;SDS011;7656;51.954;7.998;2023-11-19T20:24:19;12.07;;;3.53;;
15110;SDS011;7656;51.954;7.998;2023-11-19T20:28:40;13.47;;;2.83;;
15110;SDS011;7656;51.954;7.998;2023-11-19T20:33:02;7.17;;;3.00;;
15110;SDS011;7656;51.954;7.998;2023-11-19T20:37:23;8.33;;;2.77;;
15110;SDS011;7656;51.954;7.998;2023-11-19T20:41:46;4.97;;;2.87;;
15110;SDS011;7656;51.954;7.998;2023-11-19T20:46:08;5.27;;;2.60;;
15110;SDS011;7656;51.954;7.998;2023-11-19T20:50:29;4.97;;;2.50;;
15110;SDS011;7656;51.954;7.998;2023-11-19T20:54:51;4.27;;;2.20;;
15110;SDS011;7656;51.954;7.998;2023-11-19T20:59:12;3.60;;;2.23;;
15110;SDS011;7656;51.954;7.998;2023-11-19T21:03:36;2.13;;;2.03;;
15110;SDS011;7656;51.954;7.998;2023-11-19T21:07:58;2.30;;;1.90;;
15110;SDS011;7656;51.954;7.998;2023-11-19T21:12:20;3.30;;;1.87;;
15110;SDS011;7656;51.954;7.998;2023-11-19T21:16:41;2.83;;;1.90;;
15110;SDS011;7656;51.954;7.998;2023-11-19T21:21:03;1.80;;;1.70;;
15110;SDS011;7656;51.954;7.998;2023-11-19T21:25:25;3.17;;;2.03;;
15110;SDS011;7656;51.954;7.998;2023-11-19T21:29:46;5.47;;;2.10;;
15110;SDS011;7656;51.954;7.998;2023-11-19T21:34:08;2.67;;;1.87;;
15110;SDS011;7656;51.954;7.998;2023-11-19T21:38:29;1.83;;;1.40;;
15110;SDS011;7656;51.954;7.998;2023-11-19T21:42:52;1.50;;;1.40;;
15110;SDS011;7656;51.954;7.998;2023-11-19T21:47:13;1.90;;;1.80;;
15110;SDS011;7656;51.954;7.998;2023-11-19T21:51:39;4.07;;;1.60;;
15110;SDS011;7656;51.954;7.998;2023-11-19T21:56:01;2.53;;;1.87;;
15110;SDS011;7656;51.954;7.998;2023-11-19T22:00:23;3.13;;;1.83;;
15110;SDS011;7656;51.954;7.998;2023-11-19T22:04:44;1.70;;;1.60;;
15110;SDS011;7656;51.954;7.998;2023-11-19T22:09:06;3.00;;;1.80;;
15110;SDS011;7656;51.954;7.998;2023-11-19T22:13:30;3.30;;;1.53;;
15110;SDS011;7656;51.954;7.998;2023-11-19T22:17:52;1.80;;;1.63;;
15110;SDS011;7656;51.954;7.998;2023-11-19T22:22:14;1.77;;;1.63;;
15110;SDS011;7656;51.954;7.998;2023-11-19T22:26:35;1.73;;;1.50;;
15110;SDS011;7656;51.954;7.998;2023-11-19T22:30:57;4.10;;;2.10;;
15110;SDS011;7656;51.954;7.998;2023-11-19T22:35:19;2.77;;;2.17;;
15110;SDS011;7656;51.954;7.998;2023-11-19T22:39:41;2.03;;;1.83;;
15110;SDS011;7656;51.954;7.998;2023-11-19T22:44:03;4.20;;;2.53;;
15110;SDS011;7656;51.954;7.998;2023-11-19T22:48:25;3.23;;;2.93;;
15110;SDS011;7656;51.954;7.998;2023-11-19T22:52:46;5.00;;;2.70;;
15110;SDS011;7656;51.954;7.998;2023-11-19T22:57:08;4.67;;;2.70;;
15110;SDS011;7656;51.954;7.998;2023-11-19T23:01:29;3.50;;;2.80;;
15110;SDS011;7656;51.954;7.998;2023-11-19T23:05:52;7.67;;;3.30;;
15110;SDS011;7656;51.954;7.998;2023-11-19T23:10:14;5.60;;;3.10;;
15110;SDS011;7656;51.954;7.998;2023-11-19T23:14:38;5.70;;;3.27;;
15110;SDS011;7656;51.954;7.998;2023-11-19T23:19:00;3.83;;;3.20;;
15110;SDS011;7656;51.954;7.998;2023-11-19T23:23:21;5.40;;;3.63;;
15110;SDS011;7656;51.954;7.998;2023-11-19T23:27:43;5.20;;;3.30;;
15110;SDS011;7656;51.954;7.998;2023-11-19T23:32:04;5.93;;;3.27;;
15110;SDS011;7656;51.954;7.998;2023-11-19T23:36:26;4.60;;;3.57;;
15110;SDS011;7656;51.954;7.998;2023-11-19T23:40:48;6.87;;;3.03;;
15110;SDS011;7656;51.954;7.998;2023-11-19T23:45:10;5.47;;;2.87;;
15110;SDS011;7656;51.954;7.998;2023-11-19T23:49:31;5.07;;;2.80;;
15110;SDS011;7656;51.954;7.998;2023-11-19T23:53:53;3.33;;;2.47;;
15110;SDS011;7656;51.954;7.998;2023-11-19T23:58:14;2.80;;;2.50;;
